Terminal Aerodrome Forecast
Issued by NWS

Home | Current Version | Previous Version | Text Only | Print | Product List | Glossary On
Versions: 1 2 3 4 5 6 7 8 9 10 11 12 13 14 15 16 17 18 19 20 21 22 23 24 25 26 27 28 29 30
585
FTUS41 KOKX 252320
TAFGON
TAF
KGON 252320Z 2600/2624 20006KT P6SM SCT050
     FM260100 21006KT P6SM BKN050
      TEMPO 2610/2614 5SM BR BKN010
     FM261500 23009KT P6SM BKN035
     FM262200 29008KT P6SM SCT040=

USA.gov is the U.S. government's official web portal to all federal, state and local government web resources and services.